CheckWX is a tool to help pilots better visualize weather data.  It is not intended as a substitute for an official pre-flight weather briefing.

14:51:41 UTC

LETO TAF
Torrejón Airport
Madrid, Spain
TAF LETO 231100Z 2312/2412 04008KT CAVOK TX21/2315Z TN04/2406Z TEMPO 2312/2318 14010KT PROB30 TEMPO 2314/2317 14012G22KT

Mar-23@
12:00 UTC

Mar-23 @ 12:00 UTC

Mar-24@
12:00 UTC

Mar-24 @ 12:00 UTC

TAF LETO 231100Z 2312/2412 04008KT CAVOK TX21/2315Z TN04/2406Z
Wind
  • 040° at 8 KTS
Cloud Levels
  • No significant clouds

Mar-23@
12:00 UTC

Mar-23 @ 12:00 UTC

Mar-23@
18:00 UTC

Mar-23 @ 18:00 UTC

TEMPO 2312/2318 14010KT

Temporary

Temporary Changes expected for less than half the time period

Wind
  • 140° at 10 KTS

Mar-23@
14:00 UTC

Mar-23 @ 14:00 UTC

Mar-23@
17:00 UTC

Mar-23 @ 17:00 UTC

PROB30 TEMPO 2314/2317 14012G22KT

Temporary - 30% Likelihood

Temporary - 30% Likelihood during this time.

Wind
  • 140° at 12 KTS
  • {Gusting to 22 KTS